sensor_id;sensor_type;location;lat;lon;timestamp;P1;durP1;ratioP1;P2;durP2;ratioP2
19519;SDS011;9904;52.246;20.898;2022-11-12T00:00:43;43.47;;;18.93;;
19519;SDS011;9904;52.246;20.898;2022-11-12T00:03:10;38.53;;;18.20;;
19519;SDS011;9904;52.246;20.898;2022-11-12T00:05:36;36.33;;;19.00;;
19519;SDS011;9904;52.246;20.898;2022-11-12T00:08:03;39.53;;;16.73;;
19519;SDS011;9904;52.246;20.898;2022-11-12T00:10:30;36.10;;;18.03;;
19519;SDS011;9904;52.246;20.898;2022-11-12T00:12:57;35.47;;;17.97;;
19519;SDS011;9904;52.246;20.898;2022-11-12T00:15:24;31.97;;;17.37;;
19519;SDS011;9904;52.246;20.898;2022-11-12T00:17:51;41.23;;;18.23;;
19519;SDS011;9904;52.246;20.898;2022-11-12T00:20:18;33.67;;;16.00;;
19519;SDS011;9904;52.246;20.898;2022-11-12T00:22:44;33.97;;;17.17;;
19519;SDS011;9904;52.246;20.898;2022-11-12T00:25:11;33.97;;;16.80;;
19519;SDS011;9904;52.246;20.898;2022-11-12T00:27:37;36.47;;;17.20;;
19519;SDS011;9904;52.246;20.898;2022-11-12T00:30:04;35.40;;;17.47;;
19519;SDS011;9904;52.246;20.898;2022-11-12T00:32:31;35.73;;;17.23;;
19519;SDS011;9904;52.246;20.898;2022-11-12T00:35:01;33.47;;;17.07;;
19519;SDS011;9904;52.246;20.898;2022-11-12T00:37:28;37.53;;;17.40;;
19519;SDS011;9904;52.246;20.898;2022-11-12T00:39:55;31.57;;;17.00;;
19519;SDS011;9904;52.246;20.898;2022-11-12T00:42:21;38.10;;;17.10;;
19519;SDS011;9904;52.246;20.898;2022-11-12T00:44:48;33.20;;;16.87;;
19519;SDS011;9904;52.246;20.898;2022-11-12T00:47:15;33.20;;;16.37;;
19519;SDS011;9904;52.246;20.898;2022-11-12T00:49:42;39.57;;;17.17;;
19519;SDS011;9904;52.246;20.898;2022-11-12T00:52:08;32.57;;;16.37;;
19519;SDS011;9904;52.246;20.898;2022-11-12T00:54:35;32.43;;;15.70;;
19519;SDS011;9904;52.246;20.898;2022-11-12T00:57:01;28.90;;;16.07;;
19519;SDS011;9904;52.246;20.898;2022-11-12T00:59:28;32.37;;;15.60;;
19519;SDS011;9904;52.246;20.898;2022-11-12T01:01:55;33.67;;;16.00;;
19519;SDS011;9904;52.246;20.898;2022-11-12T01:04:21;32.47;;;16.20;;
19519;SDS011;9904;52.246;20.898;2022-11-12T01:06:48;31.33;;;16.30;;
19519;SDS011;9904;52.246;20.898;2022-11-12T01:09:14;34.77;;;16.67;;
19519;SDS011;9904;52.246;20.898;2022-11-12T01:11:41;33.30;;;15.40;;
19519;SDS011;9904;52.246;20.898;2022-11-12T01:14:08;33.97;;;16.70;;
19519;SDS011;9904;52.246;20.898;2022-11-12T01:16:36;31.63;;;15.63;;
19519;SDS011;9904;52.246;20.898;2022-11-12T01:19:05;33.67;;;16.03;;
19519;SDS011;9904;52.246;20.898;2022-11-12T01:21:36;35.77;;;16.90;;
19519;SDS011;9904;52.246;20.898;2022-11-12T01:24:04;29.73;;;15.07;;
19519;SDS011;9904;52.246;20.898;2022-11-12T01:26:30;34.43;;;16.10;;
19519;SDS011;9904;52.246;20.898;2022-11-12T01:28:57;32.87;;;16.20;;
19519;SDS011;9904;52.246;20.898;2022-11-12T01:31:25;32.77;;;15.90;;
19519;SDS011;9904;52.246;20.898;2022-11-12T01:33:56;29.13;;;15.43;;
19519;SDS011;9904;52.246;20.898;2022-11-12T01:36:25;31.97;;;15.13;;
19519;SDS011;9904;52.246;20.898;2022-11-12T01:38:54;32.87;;;16.30;;
19519;SDS011;9904;52.246;20.898;2022-11-12T01:41:24;34.83;;;16.63;;
19519;SDS011;9904;52.246;20.898;2022-11-12T01:44:29;33.57;;;15.90;;
19519;SDS011;9904;52.246;20.898;2022-11-12T01:47:08;32.00;;;15.50;;
19519;SDS011;9904;52.246;20.898;2022-11-12T01:49:38;36.23;;;15.10;;
19519;SDS011;9904;52.246;20.898;2022-11-12T01:52:16;33.83;;;14.77;;
19519;SDS011;9904;52.246;20.898;2022-11-12T01:54:52;31.53;;;15.50;;
19519;SDS011;9904;52.246;20.898;2022-11-12T01:57:27;30.37;;;14.40;;
19519;SDS011;9904;52.246;20.898;2022-11-12T02:00:02;33.47;;;14.53;;
19519;SDS011;9904;52.246;20.898;2022-11-12T02:02:33;30.20;;;15.10;;
19519;SDS011;9904;52.246;20.898;2022-11-12T02:05:01;32.53;;;15.57;;
19519;SDS011;9904;52.246;20.898;2022-11-12T02:07:28;39.63;;;16.20;;
19519;SDS011;9904;52.246;20.898;2022-11-12T02:09:56;36.80;;;17.00;;
19519;SDS011;9904;52.246;20.898;2022-11-12T02:12:23;40.27;;;17.90;;
19519;SDS011;9904;52.246;20.898;2022-11-12T02:15:08;36.93;;;16.67;;
19519;SDS011;9904;52.246;20.898;2022-11-12T02:17:35;36.87;;;16.40;;
19519;SDS011;9904;52.246;20.898;2022-11-12T02:20:02;33.33;;;16.80;;
19519;SDS011;9904;52.246;20.898;2022-11-12T02:22:29;33.80;;;17.10;;
19519;SDS011;9904;52.246;20.898;2022-11-12T02:24:55;37.23;;;16.73;;
19519;SDS011;9904;52.246;20.898;2022-11-12T02:27:22;34.60;;;16.37;;
19519;SDS011;9904;52.246;20.898;2022-11-12T02:29:48;33.73;;;16.73;;
19519;SDS011;9904;52.246;20.898;2022-11-12T02:32:15;34.67;;;18.10;;
19519;SDS011;9904;52.246;20.898;2022-11-12T02:34:42;36.13;;;17.23;;
19519;SDS011;9904;52.246;20.898;2022-11-12T02:37:08;38.40;;;18.13;;
19519;SDS011;9904;52.246;20.898;2022-11-12T02:39:35;36.60;;;17.60;;
19519;SDS011;9904;52.246;20.898;2022-11-12T02:42:01;38.17;;;18.03;;
19519;SDS011;9904;52.246;20.898;2022-11-12T02:44:28;35.13;;;17.43;;
19519;SDS011;9904;52.246;20.898;2022-11-12T02:46:56;34.20;;;17.60;;
19519;SDS011;9904;52.246;20.898;2022-11-12T02:49:22;34.70;;;17.10;;
19519;SDS011;9904;52.246;20.898;2022-11-12T02:51:49;41.13;;;18.03;;
19519;SDS011;9904;52.246;20.898;2022-11-12T02:54:16;43.57;;;18.73;;
19519;SDS011;9904;52.246;20.898;2022-11-12T02:56:42;33.30;;;17.57;;
19519;SDS011;9904;52.246;20.898;2022-11-12T02:59:08;42.77;;;18.77;;
19519;SDS011;9904;52.246;20.898;2022-11-12T03:01:35;33.80;;;18.13;;
19519;SDS011;9904;52.246;20.898;2022-11-12T03:04:02;40.83;;;19.33;;
19519;SDS011;9904;52.246;20.898;2022-11-12T03:06:28;36.57;;;18.13;;
19519;SDS011;9904;52.246;20.898;2022-11-12T03:08:55;40.40;;;19.03;;
19519;SDS011;9904;52.246;20.898;2022-11-12T03:11:22;35.33;;;18.13;;
19519;SDS011;9904;52.246;20.898;2022-11-12T03:13:48;41.17;;;18.57;;
19519;SDS011;9904;52.246;20.898;2022-11-12T03:16:15;39.53;;;17.37;;
19519;SDS011;9904;52.246;20.898;2022-11-12T03:18:41;34.67;;;17.67;;
19519;SDS011;9904;52.246;20.898;2022-11-12T03:21:08;34.77;;;18.17;;
19519;SDS011;9904;52.246;20.898;2022-11-12T03:23:35;44.80;;;17.70;;
19519;SDS011;9904;52.246;20.898;2022-11-12T03:26:02;36.33;;;18.10;;
19519;SDS011;9904;52.246;20.898;2022-11-12T03:28:29;34.50;;;18.13;;
19519;SDS011;9904;52.246;20.898;2022-11-12T03:30:59;38.73;;;18.23;;
19519;SDS011;9904;52.246;20.898;2022-11-12T03:33:26;34.27;;;17.77;;
19519;SDS011;9904;52.246;20.898;2022-11-12T03:35:53;37.63;;;16.70;;
19519;SDS011;9904;52.246;20.898;2022-11-12T03:38:20;37.33;;;16.80;;
19519;SDS011;9904;52.246;20.898;2022-11-12T03:40:46;35.80;;;16.70;;
19519;SDS011;9904;52.246;20.898;2022-11-12T03:43:14;34.97;;;15.60;;
19519;SDS011;9904;52.246;20.898;2022-11-12T03:45:40;36.40;;;16.03;;
19519;SDS011;9904;52.246;20.898;2022-11-12T03:48:07;34.03;;;16.77;;
19519;SDS011;9904;52.246;20.898;2022-11-12T03:50:34;40.67;;;17.90;;
19519;SDS011;9904;52.246;20.898;2022-11-12T03:53:01;33.97;;;16.87;;
19519;SDS011;9904;52.246;20.898;2022-11-12T03:55:28;33.97;;;17.23;;
19519;SDS011;9904;52.246;20.898;2022-11-12T03:57:55;36.00;;;16.23;;
19519;SDS011;9904;52.246;20.898;2022-11-12T04:00:23;34.13;;;15.83;;
19519;SDS011;9904;52.246;20.898;2022-11-12T04:02:51;35.53;;;16.00;;
19519;SDS011;9904;52.246;20.898;2022-11-12T04:05:18;36.30;;;16.00;;
19519;SDS011;9904;52.246;20.898;2022-11-12T04:08:05;31.00;;;15.13;;
19519;SDS011;9904;52.246;20.898;2022-11-12T04:10:52;33.20;;;14.93;;
19519;SDS011;9904;52.246;20.898;2022-11-12T04:13:19;31.40;;;14.17;;
19519;SDS011;9904;52.246;20.898;2022-11-12T04:15:56;34.80;;;14.50;;
19519;SDS011;9904;52.246;20.898;2022-11-12T04:18:43;35.83;;;14.80;;
19519;SDS011;9904;52.246;20.898;2022-11-12T04:21:36;32.93;;;14.43;;
19519;SDS011;9904;52.246;20.898;2022-11-12T04:24:18;32.50;;;14.03;;
19519;SDS011;9904;52.246;20.898;2022-11-12T04:27:06;31.57;;;13.90;;
19519;SDS011;9904;52.246;20.898;2022-11-12T04:29:33;33.87;;;15.73;;
19519;SDS011;9904;52.246;20.898;2022-11-12T04:32:19;34.13;;;16.90;;
19519;SDS011;9904;52.246;20.898;2022-11-12T04:34:45;33.37;;;16.10;;
19519;SDS011;9904;52.246;20.898;2022-11-12T04:37:12;29.90;;;14.50;;
19519;SDS011;9904;52.246;20.898;2022-11-12T04:39:38;32.53;;;16.70;;
19519;SDS011;9904;52.246;20.898;2022-11-12T04:42:06;30.87;;;15.93;;
19519;SDS011;9904;52.246;20.898;2022-11-12T04:44:53;38.63;;;18.07;;
19519;SDS011;9904;52.246;20.898;2022-11-12T04:47:22;38.33;;;19.23;;
19519;SDS011;9904;52.246;20.898;2022-11-12T04:49:49;34.87;;;17.93;;
19519;SDS011;9904;52.246;20.898;2022-11-12T04:52:15;42.43;;;18.17;;
19519;SDS011;9904;52.246;20.898;2022-11-12T04:54:42;45.97;;;18.67;;
19519;SDS011;9904;52.246;20.898;2022-11-12T04:57:09;39.33;;;18.17;;
19519;SDS011;9904;52.246;20.898;2022-11-12T04:59:35;38.87;;;18.33;;
19519;SDS011;9904;52.246;20.898;2022-11-12T05:02:02;44.10;;;20.27;;
19519;SDS011;9904;52.246;20.898;2022-11-12T05:04:28;42.40;;;19.03;;
19519;SDS011;9904;52.246;20.898;2022-11-12T05:06:55;46.27;;;19.40;;
19519;SDS011;9904;52.246;20.898;2022-11-12T05:09:26;41.60;;;19.70;;
19519;SDS011;9904;52.246;20.898;2022-11-12T05:11:55;46.83;;;20.60;;
19519;SDS011;9904;52.246;20.898;2022-11-12T05:14:22;45.13;;;20.10;;
19519;SDS011;9904;52.246;20.898;2022-11-12T05:16:49;40.70;;;19.30;;
19519;SDS011;9904;52.246;20.898;2022-11-12T05:19:16;50.10;;;21.30;;
19519;SDS011;9904;52.246;20.898;2022-11-12T05:21:43;43.23;;;20.23;;
19519;SDS011;9904;52.246;20.898;2022-11-12T05:24:28;42.60;;;20.00;;
19519;SDS011;9904;52.246;20.898;2022-11-12T05:27:11;42.00;;;20.27;;
19519;SDS011;9904;52.246;20.898;2022-11-12T05:29:39;42.23;;;19.77;;
19519;SDS011;9904;52.246;20.898;2022-11-12T05:32:06;40.77;;;20.17;;
19519;SDS011;9904;52.246;20.898;2022-11-12T05:34:33;43.73;;;20.70;;
19519;SDS011;9904;52.246;20.898;2022-11-12T05:37:00;45.77;;;21.67;;
19519;SDS011;9904;52.246;20.898;2022-11-12T05:39:28;40.10;;;20.50;;
19519;SDS011;9904;52.246;20.898;2022-11-12T05:41:54;45.23;;;22.20;;
19519;SDS011;9904;52.246;20.898;2022-11-12T05:44:38;45.13;;;21.87;;
19519;SDS011;9904;52.246;20.898;2022-11-12T05:47:04;48.73;;;23.23;;
19519;SDS011;9904;52.246;20.898;2022-11-12T05:49:31;43.30;;;21.90;;
19519;SDS011;9904;52.246;20.898;2022-11-12T05:51:57;48.77;;;22.63;;
19519;SDS011;9904;52.246;20.898;2022-11-12T05:54:24;45.90;;;23.03;;
19519;SDS011;9904;52.246;20.898;2022-11-12T05:56:51;48.70;;;21.80;;
19519;SDS011;9904;52.246;20.898;2022-11-12T05:59:18;50.77;;;21.93;;
19519;SDS011;9904;52.246;20.898;2022-11-12T06:01:45;45.97;;;23.10;;
19519;SDS011;9904;52.246;20.898;2022-11-12T06:04:12;47.17;;;21.83;;
19519;SDS011;9904;52.246;20.898;2022-11-12T06:06:40;47.73;;;23.03;;
19519;SDS011;9904;52.246;20.898;2022-11-12T06:09:07;44.37;;;22.13;;
19519;SDS011;9904;52.246;20.898;2022-11-12T06:11:34;47.90;;;22.07;;
19519;SDS011;9904;52.246;20.898;2022-11-12T06:14:01;51.27;;;25.07;;
19519;SDS011;9904;52.246;20.898;2022-11-12T06:16:28;53.20;;;25.53;;
19519;SDS011;9904;52.246;20.898;2022-11-12T06:18:55;54.93;;;25.00;;
19519;SDS011;9904;52.246;20.898;2022-11-12T06:21:21;48.40;;;25.50;;
19519;SDS011;9904;52.246;20.898;2022-11-12T06:23:49;57.37;;;27.37;;
19519;SDS011;9904;52.246;20.898;2022-11-12T06:26:26;54.83;;;26.83;;
19519;SDS011;9904;52.246;20.898;2022-11-12T06:28:54;53.53;;;27.70;;
19519;SDS011;9904;52.246;20.898;2022-11-12T06:31:21;55.93;;;27.07;;
19519;SDS011;9904;52.246;20.898;2022-11-12T06:33:48;60.17;;;27.97;;
19519;SDS011;9904;52.246;20.898;2022-11-12T06:36:15;60.30;;;28.17;;
19519;SDS011;9904;52.246;20.898;2022-11-12T06:38:44;60.20;;;27.73;;
19519;SDS011;9904;52.246;20.898;2022-11-12T06:41:11;58.93;;;28.03;;
19519;SDS011;9904;52.246;20.898;2022-11-12T06:43:38;53.43;;;25.27;;
19519;SDS011;9904;52.246;20.898;2022-11-12T06:46:06;55.13;;;26.87;;
19519;SDS011;9904;52.246;20.898;2022-11-12T06:48:37;58.37;;;26.80;;
19519;SDS011;9904;52.246;20.898;2022-11-12T06:51:05;53.20;;;26.20;;
19519;SDS011;9904;52.246;20.898;2022-11-12T06:53:33;61.30;;;26.57;;
19519;SDS011;9904;52.246;20.898;2022-11-12T06:56:01;66.30;;;26.37;;
19519;SDS011;9904;52.246;20.898;2022-11-12T06:58:29;52.47;;;23.97;;
19519;SDS011;9904;52.246;20.898;2022-11-12T07:00:56;56.10;;;26.10;;
19519;SDS011;9904;52.246;20.898;2022-11-12T07:03:22;54.70;;;25.53;;
19519;SDS011;9904;52.246;20.898;2022-11-12T07:05:49;63.53;;;25.30;;
19519;SDS011;9904;52.246;20.898;2022-11-12T07:08:16;58.20;;;28.03;;
19519;SDS011;9904;52.246;20.898;2022-11-12T07:10:43;57.27;;;27.80;;
19519;SDS011;9904;52.246;20.898;2022-11-12T07:13:09;56.47;;;27.27;;
19519;SDS011;9904;52.246;20.898;2022-11-12T07:15:35;63.90;;;27.83;;
19519;SDS011;9904;52.246;20.898;2022-11-12T07:18:02;64.40;;;28.80;;
19519;SDS011;9904;52.246;20.898;2022-11-12T07:20:29;66.30;;;28.87;;
19519;SDS011;9904;52.246;20.898;2022-11-12T07:22:58;64.43;;;29.67;;
19519;SDS011;9904;52.246;20.898;2022-11-12T07:25:25;60.57;;;29.73;;
19519;SDS011;9904;52.246;20.898;2022-11-12T07:27:53;64.77;;;28.90;;
19519;SDS011;9904;52.246;20.898;2022-11-12T07:30:20;71.57;;;31.60;;
19519;SDS011;9904;52.246;20.898;2022-11-12T07:32:46;64.93;;;30.57;;
19519;SDS011;9904;52.246;20.898;2022-11-12T07:35:17;66.47;;;31.07;;
19519;SDS011;9904;52.246;20.898;2022-11-12T07:37:43;73.27;;;33.03;;
19519;SDS011;9904;52.246;20.898;2022-11-12T07:40:10;68.07;;;31.93;;
19519;SDS011;9904;52.246;20.898;2022-11-12T07:42:37;71.40;;;31.87;;
19519;SDS011;9904;52.246;20.898;2022-11-12T07:45:03;72.60;;;32.33;;
19519;SDS011;9904;52.246;20.898;2022-11-12T07:47:30;76.63;;;32.63;;
19519;SDS011;9904;52.246;20.898;2022-11-12T07:49:57;70.07;;;31.50;;
19519;SDS011;9904;52.246;20.898;2022-11-12T07:52:24;65.47;;;31.03;;
19519;SDS011;9904;52.246;20.898;2022-11-12T07:54:50;71.47;;;33.10;;
19519;SDS011;9904;52.246;20.898;2022-11-12T07:57:17;64.07;;;30.90;;
19519;SDS011;9904;52.246;20.898;2022-11-12T07:59:43;66.43;;;31.60;;
19519;SDS011;9904;52.246;20.898;2022-11-12T08:02:11;70.00;;;32.00;;
19519;SDS011;9904;52.246;20.898;2022-11-12T08:04:38;61.30;;;30.80;;
19519;SDS011;9904;52.246;20.898;2022-11-12T08:07:05;65.93;;;31.17;;
19519;SDS011;9904;52.246;20.898;2022-11-12T08:09:32;70.50;;;31.97;;
19519;SDS011;9904;52.246;20.898;2022-11-12T08:11:58;69.97;;;32.37;;
19519;SDS011;9904;52.246;20.898;2022-11-12T08:14:25;66.67;;;33.07;;
19519;SDS011;9904;52.246;20.898;2022-11-12T08:16:52;62.17;;;31.73;;
19519;SDS011;9904;52.246;20.898;2022-11-12T08:19:18;72.77;;;30.93;;
19519;SDS011;9904;52.246;20.898;2022-11-12T08:21:45;66.07;;;33.43;;
19519;SDS011;9904;52.246;20.898;2022-11-12T08:24:12;71.80;;;31.77;;
19519;SDS011;9904;52.246;20.898;2022-11-12T08:26:38;72.83;;;32.47;;
19519;SDS011;9904;52.246;20.898;2022-11-12T08:29:05;60.97;;;31.37;;
19519;SDS011;9904;52.246;20.898;2022-11-12T08:31:34;71.77;;;32.03;;
19519;SDS011;9904;52.246;20.898;2022-11-12T08:34:01;66.20;;;32.43;;
19519;SDS011;9904;52.246;20.898;2022-11-12T08:36:37;65.27;;;31.83;;
19519;SDS011;9904;52.246;20.898;2022-11-12T08:39:05;67.20;;;31.13;;
19519;SDS011;9904;52.246;20.898;2022-11-12T08:41:32;68.33;;;31.00;;
19519;SDS011;9904;52.246;20.898;2022-11-12T08:43:59;68.57;;;32.67;;
19519;SDS011;9904;52.246;20.898;2022-11-12T08:46:33;75.80;;;31.67;;
19519;SDS011;9904;52.246;20.898;2022-11-12T08:49:00;71.47;;;32.23;;
19519;SDS011;9904;52.246;20.898;2022-11-12T08:51:28;66.40;;;31.77;;
19519;SDS011;9904;52.246;20.898;2022-11-12T08:53:55;75.23;;;32.87;;
19519;SDS011;9904;52.246;20.898;2022-11-12T08:56:22;66.73;;;31.53;;
19519;SDS011;9904;52.246;20.898;2022-11-12T08:58:49;70.97;;;31.50;;
19519;SDS011;9904;52.246;20.898;2022-11-12T09:01:15;71.67;;;33.20;;
19519;SDS011;9904;52.246;20.898;2022-11-12T09:03:42;63.83;;;31.43;;
19519;SDS011;9904;52.246;20.898;2022-11-12T09:06:08;74.67;;;32.87;;
19519;SDS011;9904;52.246;20.898;2022-11-12T09:08:35;72.90;;;31.53;;
19519;SDS011;9904;52.246;20.898;2022-11-12T09:11:03;64.03;;;31.20;;
19519;SDS011;9904;52.246;20.898;2022-11-12T09:13:30;64.20;;;33.63;;
19519;SDS011;9904;52.246;20.898;2022-11-12T09:16:00;70.97;;;32.60;;
19519;SDS011;9904;52.246;20.898;2022-11-12T09:18:28;68.57;;;32.67;;
19519;SDS011;9904;52.246;20.898;2022-11-12T09:20:59;74.13;;;33.17;;
19519;SDS011;9904;52.246;20.898;2022-11-12T09:23:28;66.90;;;31.10;;
19519;SDS011;9904;52.246;20.898;2022-11-12T09:25:55;73.87;;;33.83;;
19519;SDS011;9904;52.246;20.898;2022-11-12T09:28:22;65.53;;;33.07;;
19519;SDS011;9904;52.246;20.898;2022-11-12T09:30:50;66.20;;;33.83;;
19519;SDS011;9904;52.246;20.898;2022-11-12T09:33:21;69.10;;;33.67;;
19519;SDS011;9904;52.246;20.898;2022-11-12T09:35:53;69.67;;;33.03;;
19519;SDS011;9904;52.246;20.898;2022-11-12T09:38:20;66.57;;;33.30;;
19519;SDS011;9904;52.246;20.898;2022-11-12T09:45:45;64.90;;;32.23;;
19519;SDS011;9904;52.246;20.898;2022-11-12T09:48:35;59.17;;;31.63;;
19519;SDS011;9904;52.246;20.898;2022-11-12T09:51:10;66.80;;;31.53;;
19519;SDS011;9904;52.246;20.898;2022-11-12T09:53:46;56.43;;;31.53;;
19519;SDS011;9904;52.246;20.898;2022-11-12T09:56:24;62.27;;;32.70;;
19519;SDS011;9904;52.246;20.898;2022-11-12T09:58:51;58.20;;;30.53;;
19519;SDS011;9904;52.246;20.898;2022-11-12T10:07:37;64.37;;;33.30;;
19519;SDS011;9904;52.246;20.898;2022-11-12T10:10:11;65.00;;;34.33;;
19519;SDS011;9904;52.246;20.898;2022-11-12T10:15:24;59.50;;;32.47;;
19519;SDS011;9904;52.246;20.898;2022-11-12T10:24:11;61.70;;;33.67;;
19519;SDS011;9904;52.246;20.898;2022-11-12T10:26:38;62.23;;;33.73;;
19519;SDS011;9904;52.246;20.898;2022-11-12T10:31:54;61.03;;;32.00;;
19519;SDS011;9904;52.246;20.898;2022-11-12T10:34:22;56.43;;;31.47;;
19519;SDS011;9904;52.246;20.898;2022-11-12T10:36:53;61.50;;;30.93;;
19519;SDS011;9904;52.246;20.898;2022-11-12T10:39:35;54.30;;;30.33;;
19519;SDS011;9904;52.246;20.898;2022-11-12T10:42:06;51.90;;;29.03;;
19519;SDS011;9904;52.246;20.898;2022-11-12T10:44:34;50.10;;;29.00;;
19519;SDS011;9904;52.246;20.898;2022-11-12T10:47:15;52.90;;;29.17;;
19519;SDS011;9904;52.246;20.898;2022-11-12T10:52:54;47.03;;;27.83;;
19519;SDS011;9904;52.246;20.898;2022-11-12T10:55:24;50.20;;;29.20;;
19519;SDS011;9904;52.246;20.898;2022-11-12T10:58:02;48.90;;;26.87;;
19519;SDS011;9904;52.246;20.898;2022-11-12T11:00:35;49.03;;;26.87;;
19519;SDS011;9904;52.246;20.898;2022-11-12T11:03:09;43.70;;;25.73;;
19519;SDS011;9904;52.246;20.898;2022-11-12T11:11:35;50.17;;;29.70;;
19519;SDS011;9904;52.246;20.898;2022-11-12T11:14:18;45.27;;;27.27;;
19519;SDS011;9904;52.246;20.898;2022-11-12T11:16:54;50.43;;;27.23;;
19519;SDS011;9904;52.246;20.898;2022-11-12T11:19:26;47.30;;;27.57;;
19519;SDS011;9904;52.246;20.898;2022-11-12T11:22:04;46.30;;;26.13;;
19519;SDS011;9904;52.246;20.898;2022-11-12T11:30:08;47.80;;;27.17;;
19519;SDS011;9904;52.246;20.898;2022-11-12T11:40:53;47.00;;;23.87;;
19519;SDS011;9904;52.246;20.898;2022-11-12T11:43:28;41.97;;;22.50;;
19519;SDS011;9904;52.246;20.898;2022-11-12T11:46:06;40.07;;;21.70;;
19519;SDS011;9904;52.246;20.898;2022-11-12T11:51:20;34.87;;;20.10;;
19519;SDS011;9904;52.246;20.898;2022-11-12T11:54:18;40.50;;;20.07;;
19519;SDS011;9904;52.246;20.898;2022-11-12T11:57:15;34.40;;;18.13;;
19519;SDS011;9904;52.246;20.898;2022-11-12T11:59:59;37.70;;;19.63;;
19519;SDS011;9904;52.246;20.898;2022-11-12T12:02:31;41.93;;;20.10;;
19519;SDS011;9904;52.246;20.898;2022-11-12T12:05:19;40.20;;;21.13;;
19519;SDS011;9904;52.246;20.898;2022-11-12T12:10:36;38.30;;;20.70;;
19519;SDS011;9904;52.246;20.898;2022-11-12T12:16:25;36.80;;;19.20;;
19519;SDS011;9904;52.246;20.898;2022-11-12T12:22:02;36.10;;;19.20;;
19519;SDS011;9904;52.246;20.898;2022-11-12T12:24:53;35.53;;;19.00;;
19519;SDS011;9904;52.246;20.898;2022-11-12T12:27:24;43.40;;;19.50;;
19519;SDS011;9904;52.246;20.898;2022-11-12T12:29:55;33.13;;;18.67;;
19519;SDS011;9904;52.246;20.898;2022-11-12T12:32:26;38.73;;;18.77;;
19519;SDS011;9904;52.246;20.898;2022-11-12T12:35:02;33.47;;;17.03;;
19519;SDS011;9904;52.246;20.898;2022-11-12T12:37:36;34.40;;;17.07;;
19519;SDS011;9904;52.246;20.898;2022-11-12T12:40:20;35.93;;;17.07;;
19519;SDS011;9904;52.246;20.898;2022-11-12T12:43:00;36.23;;;16.53;;
19519;SDS011;9904;52.246;20.898;2022-11-12T12:45:41;32.57;;;16.07;;
19519;SDS011;9904;52.246;20.898;2022-11-12T12:48:17;33.73;;;17.40;;
19519;SDS011;9904;52.246;20.898;2022-11-12T12:50:46;33.07;;;17.20;;
19519;SDS011;9904;52.246;20.898;2022-11-12T12:53:17;37.30;;;18.30;;
19519;SDS011;9904;52.246;20.898;2022-11-12T12:56:00;34.57;;;17.50;;
19519;SDS011;9904;52.246;20.898;2022-11-12T13:03:59;30.63;;;16.97;;
19519;SDS011;9904;52.246;20.898;2022-11-12T13:06:33;41.83;;;18.20;;
19519;SDS011;9904;52.246;20.898;2022-11-12T13:09:03;37.27;;;17.17;;
19519;SDS011;9904;52.246;20.898;2022-11-12T13:17:02;33.93;;;17.20;;
19519;SDS011;9904;52.246;20.898;2022-11-12T13:30:06;41.07;;;19.90;;
19519;SDS011;9904;52.246;20.898;2022-11-12T13:32:55;35.90;;;20.20;;
19519;SDS011;9904;52.246;20.898;2022-11-12T13:35:29;37.87;;;19.87;;
19519;SDS011;9904;52.246;20.898;2022-11-12T13:46:23;36.43;;;20.37;;
19519;SDS011;9904;52.246;20.898;2022-11-12T13:51:44;39.60;;;20.80;;
19519;SDS011;9904;52.246;20.898;2022-11-12T13:59:47;45.93;;;23.50;;
19519;SDS011;9904;52.246;20.898;2022-11-12T14:02:24;45.40;;;23.93;;
19519;SDS011;9904;52.246;20.898;2022-11-12T14:04:51;49.70;;;25.17;;
19519;SDS011;9904;52.246;20.898;2022-11-12T14:18:02;47.73;;;25.73;;
19519;SDS011;9904;52.246;20.898;2022-11-12T14:20:47;52.03;;;26.90;;
19519;SDS011;9904;52.246;20.898;2022-11-12T14:23:15;48.90;;;26.97;;
19519;SDS011;9904;52.246;20.898;2022-11-12T14:25:51;49.83;;;28.53;;
19519;SDS011;9904;52.246;20.898;2022-11-12T14:28:31;49.83;;;26.10;;
19519;SDS011;9904;52.246;20.898;2022-11-12T14:30:59;52.37;;;27.87;;
19519;SDS011;9904;52.246;20.898;2022-11-12T14:33:29;54.53;;;28.80;;
19519;SDS011;9904;52.246;20.898;2022-11-12T14:36:00;51.47;;;28.67;;
19519;SDS011;9904;52.246;20.898;2022-11-12T14:38:30;49.30;;;27.70;;
19519;SDS011;9904;52.246;20.898;2022-11-12T14:43:31;52.77;;;27.10;;
19519;SDS011;9904;52.246;20.898;2022-11-12T14:46:01;49.33;;;26.77;;
19519;SDS011;9904;52.246;20.898;2022-11-12T14:48:30;51.67;;;27.80;;
19519;SDS011;9904;52.246;20.898;2022-11-12T14:51:13;53.67;;;28.80;;
19519;SDS011;9904;52.246;20.898;2022-11-12T14:53:40;58.10;;;29.27;;
19519;SDS011;9904;52.246;20.898;2022-11-12T14:56:15;60.73;;;30.60;;
19519;SDS011;9904;52.246;20.898;2022-11-12T14:59:04;59.17;;;30.03;;
19519;SDS011;9904;52.246;20.898;2022-11-12T15:01:32;60.00;;;30.33;;
19519;SDS011;9904;52.246;20.898;2022-11-12T15:04:20;56.33;;;29.57;;
19519;SDS011;9904;52.246;20.898;2022-11-12T15:06:54;55.47;;;29.57;;
19519;SDS011;9904;52.246;20.898;2022-11-12T15:09:30;65.63;;;30.30;;
19519;SDS011;9904;52.246;20.898;2022-11-12T15:12:10;56.50;;;29.63;;
19519;SDS011;9904;52.246;20.898;2022-11-12T15:14:39;58.87;;;28.63;;
19519;SDS011;9904;52.246;20.898;2022-11-12T15:17:17;57.73;;;29.17;;
19519;SDS011;9904;52.246;20.898;2022-11-12T15:20:15;57.17;;;30.53;;
19519;SDS011;9904;52.246;20.898;2022-11-12T15:22:52;59.50;;;29.93;;
19519;SDS011;9904;52.246;20.898;2022-11-12T15:25:20;66.77;;;31.73;;
19519;SDS011;9904;52.246;20.898;2022-11-12T15:27:50;61.07;;;30.97;;
19519;SDS011;9904;52.246;20.898;2022-11-12T15:33:08;60.07;;;30.57;;
19519;SDS011;9904;52.246;20.898;2022-11-12T15:35:42;60.60;;;31.73;;
19519;SDS011;9904;52.246;20.898;2022-11-12T15:38:12;60.57;;;30.60;;
19519;SDS011;9904;52.246;20.898;2022-11-12T15:40:43;54.97;;;29.20;;
19519;SDS011;9904;52.246;20.898;2022-11-12T15:43:27;58.77;;;30.17;;
19519;SDS011;9904;52.246;20.898;2022-11-12T15:45:55;56.13;;;30.70;;
19519;SDS011;9904;52.246;20.898;2022-11-12T15:48:22;63.03;;;30.93;;
19519;SDS011;9904;52.246;20.898;2022-11-12T15:50:49;57.37;;;30.97;;
19519;SDS011;9904;52.246;20.898;2022-11-12T15:53:15;59.00;;;30.03;;
19519;SDS011;9904;52.246;20.898;2022-11-12T15:55:42;57.57;;;29.63;;
19519;SDS011;9904;52.246;20.898;2022-11-12T15:58:19;53.70;;;28.93;;
19519;SDS011;9904;52.246;20.898;2022-11-12T16:00:54;62.90;;;30.47;;
19519;SDS011;9904;52.246;20.898;2022-11-12T16:03:20;58.27;;;30.43;;
19519;SDS011;9904;52.246;20.898;2022-11-12T16:05:47;48.00;;;28.30;;
19519;SDS011;9904;52.246;20.898;2022-11-12T16:08:14;60.50;;;29.93;;
19519;SDS011;9904;52.246;20.898;2022-11-12T16:10:41;60.87;;;30.37;;
19519;SDS011;9904;52.246;20.898;2022-11-12T16:16:05;57.47;;;29.63;;
19519;SDS011;9904;52.246;20.898;2022-11-12T16:18:35;51.90;;;25.77;;
19519;SDS011;9904;52.246;20.898;2022-11-12T16:21:01;49.73;;;25.70;;
19519;SDS011;9904;52.246;20.898;2022-11-12T16:23:28;52.57;;;24.63;;
19519;SDS011;9904;52.246;20.898;2022-11-12T16:25:55;43.93;;;24.90;;
19519;SDS011;9904;52.246;20.898;2022-11-12T16:28:21;46.53;;;23.90;;
19519;SDS011;9904;52.246;20.898;2022-11-12T16:30:48;46.73;;;23.83;;
19519;SDS011;9904;52.246;20.898;2022-11-12T16:33:16;44.70;;;21.47;;